sensor_id;sensor_type;location;lat;lon;timestamp;pressure;altitude;pressure_sealevel;temperature;humidity
76994;BME280;66749;47.406;18.822;2023-09-19T00:00:07;99832.66;;;22.98;62.63
76994;BME280;66749;47.406;18.822;2023-09-19T00:00:40;99836.13;;;22.99;63.01
76994;BME280;66749;47.406;18.822;2023-09-19T00:01:13;99837.16;;;22.98;63.27
76994;BME280;66749;47.406;18.822;2023-09-19T00:01:46;99835.13;;;23.00;63.11
76994;BME280;66749;47.406;18.822;2023-09-19T00:02:18;99839.81;;;22.98;63.07
76994;BME280;66749;47.406;18.822;2023-09-19T00:02:54;99841.47;;;22.99;63.21
76994;BME280;66749;47.406;18.822;2023-09-19T00:03:26;99840.78;;;22.97;63.10
76994;BME280;66749;47.406;18.822;2023-09-19T00:03:59;99836.47;;;22.96;63.04
76994;BME280;66749;47.406;18.822;2023-09-19T00:04:32;99837.28;;;22.96;63.03
76994;BME280;66749;47.406;18.822;2023-09-19T00:05:04;99833.16;;;22.94;63.11
76994;BME280;66749;47.406;18.822;2023-09-19T00:05:37;99844.81;;;22.93;63.15
76994;BME280;66749;47.406;18.822;2023-09-19T00:06:10;99833.53;;;22.91;63.36
76994;BME280;66749;47.406;18.822;2023-09-19T00:06:42;99839.88;;;22.90;63.47
76994;BME280;66749;47.406;18.822;2023-09-19T00:07:15;99836.34;;;22.89;63.58
76994;BME280;66749;47.406;18.822;2023-09-19T00:07:48;99840.84;;;22.89;63.54
76994;BME280;66749;47.406;18.822;2023-09-19T00:08:22;99844.53;;;22.88;63.84
76994;BME280;66749;47.406;18.822;2023-09-19T00:08:54;99846.56;;;22.86;63.77
76994;BME280;66749;47.406;18.822;2023-09-19T00:09:26;99845.72;;;22.85;63.61
76994;BME280;66749;47.406;18.822;2023-09-19T00:09:59;99846.69;;;22.84;63.85
76994;BME280;66749;47.406;18.822;2023-09-19T00:10:33;99839.53;;;22.85;63.89
76994;BME280;66749;47.406;18.822;2023-09-19T00:11:08;99848.53;;;22.84;63.75
76994;BME280;66749;47.406;18.822;2023-09-19T00:11:42;99845.22;;;22.82;64.31
76994;BME280;66749;47.406;18.822;2023-09-19T00:12:14;99853.03;;;22.83;63.86
76994;BME280;66749;47.406;18.822;2023-09-19T00:12:46;99846.22;;;22.81;64.22
76994;BME280;66749;47.406;18.822;2023-09-19T00:13:17;99848.06;;;22.80;64.41
76994;BME280;66749;47.406;18.822;2023-09-19T00:13:50;99845.22;;;22.82;64.27
76994;BME280;66749;47.406;18.822;2023-09-19T00:14:25;99844.56;;;22.80;64.38
76994;BME280;66749;47.406;18.822;2023-09-19T00:14:56;99848.22;;;22.79;64.36
76994;BME280;66749;47.406;18.822;2023-09-19T00:15:28;99850.91;;;22.79;64.70
76994;BME280;66749;47.406;18.822;2023-09-19T00:16:00;99848.88;;;22.81;64.06
76994;BME280;66749;47.406;18.822;2023-09-19T00:16:33;99851.72;;;22.79;64.73
76994;BME280;66749;47.406;18.822;2023-09-19T00:17:05;99843.94;;;22.78;64.83
76994;BME280;66749;47.406;18.822;2023-09-19T00:17:40;99851.25;;;22.76;64.56
76994;BME280;66749;47.406;18.822;2023-09-19T00:18:12;99847.94;;;22.74;64.82
76994;BME280;66749;47.406;18.822;2023-09-19T00:18:45;99854.06;;;22.74;64.61
76994;BME280;66749;47.406;18.822;2023-09-19T00:19:17;99853.25;;;22.74;64.48
76994;BME280;66749;47.406;18.822;2023-09-19T00:19:49;99849.78;;;22.73;65.31
76994;BME280;66749;47.406;18.822;2023-09-19T00:20:22;99845.63;;;22.70;65.32
76994;BME280;66749;47.406;18.822;2023-09-19T00:21:32;99847.47;;;22.70;64.86
76994;BME280;66749;47.406;18.822;2023-09-19T00:22:04;99851.16;;;22.69;65.18
76994;BME280;66749;47.406;18.822;2023-09-19T00:22:39;99845.81;;;22.69;64.99
76994;BME280;66749;47.406;18.822;2023-09-19T00:23:11;99838.84;;;22.68;65.22
76994;BME280;66749;47.406;18.822;2023-09-19T00:23:43;99846.00;;;22.67;64.92
76994;BME280;66749;47.406;18.822;2023-09-19T00:24:15;99846.97;;;22.66;64.97
76994;BME280;66749;47.406;18.822;2023-09-19T00:24:49;99855.63;;;22.68;64.88
76994;BME280;66749;47.406;18.822;2023-09-19T00:25:22;99842.50;;;22.67;65.56
76994;BME280;66749;47.406;18.822;2023-09-19T00:26:00;99844.50;;;22.65;66.12
76994;BME280;66749;47.406;18.822;2023-09-19T00:26:32;99839.19;;;22.65;65.30
76994;BME280;66749;47.406;18.822;2023-09-19T00:27:06;99848.19;;;22.64;65.83
76994;BME280;66749;47.406;18.822;2023-09-19T00:27:39;99844.06;;;22.61;66.27
76994;BME280;66749;47.406;18.822;2023-09-19T00:28:11;99846.53;;;22.63;66.21
76994;BME280;66749;47.406;18.822;2023-09-19T00:28:43;99840.38;;;22.62;66.40
76994;BME280;66749;47.406;18.822;2023-09-19T00:29:15;99848.53;;;22.61;66.87
76994;BME280;66749;47.406;18.822;2023-09-19T00:29:48;99843.22;;;22.61;66.81
76994;BME280;66749;47.406;18.822;2023-09-19T00:30:19;99849.38;;;22.61;66.24
76994;BME280;66749;47.406;18.822;2023-09-19T00:30:52;99847.72;;;22.60;66.56
76994;BME280;66749;47.406;18.822;2023-09-19T00:31:26;99853.03;;;22.60;66.81
76994;BME280;66749;47.406;18.822;2023-09-19T00:31:58;99844.22;;;22.60;66.31
76994;BME280;66749;47.406;18.822;2023-09-19T00:32:31;99846.03;;;22.59;66.69
76994;BME280;66749;47.406;18.822;2023-09-19T00:33:03;99849.72;;;22.58;66.33
76994;BME280;66749;47.406;18.822;2023-09-19T00:33:37;99850.72;;;22.57;66.68
76994;BME280;66749;47.406;18.822;2023-09-19T00:34:09;99847.41;;;22.55;66.88
76994;BME280;66749;47.406;18.822;2023-09-19T00:34:42;99847.59;;;22.54;66.38
76994;BME280;66749;47.406;18.822;2023-09-19T00:35:14;99840.63;;;22.53;66.40
76994;BME280;66749;47.406;18.822;2023-09-19T00:35:52;99846.41;;;22.56;66.27
76994;BME280;66749;47.406;18.822;2023-09-19T00:36:24;99841.28;;;22.55;66.17
76994;BME280;66749;47.406;18.822;2023-09-19T00:36:56;99840.63;;;22.53;66.36
76994;BME280;66749;47.406;18.822;2023-09-19T00:37:28;99838.78;;;22.53;66.33
76994;BME280;66749;47.406;18.822;2023-09-19T00:38:00;99845.13;;;22.52;66.23
76994;BME280;66749;47.406;18.822;2023-09-19T00:38:32;99846.91;;;22.52;66.72
76994;BME280;66749;47.406;18.822;2023-09-19T00:39:04;99834.81;;;22.49;66.36
76994;BME280;66749;47.406;18.822;2023-09-19T00:39:37;99839.50;;;22.47;67.54
76994;BME280;66749;47.406;18.822;2023-09-19T00:40:10;99846.66;;;22.47;67.20
76994;BME280;66749;47.406;18.822;2023-09-19T00:40:47;99843.81;;;22.48;66.73
76994;BME280;66749;47.406;18.822;2023-09-19T00:41:19;99844.63;;;22.49;66.78
76994;BME280;66749;47.406;18.822;2023-09-19T00:41:51;99842.16;;;22.47;66.69
76994;BME280;66749;47.406;18.822;2023-09-19T00:42:23;99841.50;;;22.45;66.50
76994;BME280;66749;47.406;18.822;2023-09-19T00:42:57;99841.31;;;22.47;66.65
76994;BME280;66749;47.406;18.822;2023-09-19T00:43:31;99841.66;;;22.43;67.01
76994;BME280;66749;47.406;18.822;2023-09-19T00:44:06;99845.31;;;22.42;67.28
76994;BME280;66749;47.406;18.822;2023-09-19T00:44:38;99841.66;;;22.43;66.85
76994;BME280;66749;47.406;18.822;2023-09-19T00:45:16;99848.16;;;22.41;66.81
76994;BME280;66749;47.406;18.822;2023-09-19T00:45:51;99845.50;;;22.41;66.71
76994;BME280;66749;47.406;18.822;2023-09-19T00:46:23;99843.22;;;22.38;66.80
76994;BME280;66749;47.406;18.822;2023-09-19T00:46:55;99844.69;;;22.40;67.82
76994;BME280;66749;47.406;18.822;2023-09-19T00:47:28;99845.88;;;22.38;68.02
76994;BME280;66749;47.406;18.822;2023-09-19T00:48:02;99842.38;;;22.37;68.19
76994;BME280;66749;47.406;18.822;2023-09-19T00:48:41;99841.56;;;22.37;67.93
76994;BME280;66749;47.406;18.822;2023-09-19T00:49:16;99843.72;;;22.33;68.57
76994;BME280;66749;47.406;18.822;2023-09-19T00:49:48;99848.41;;;22.31;68.33
76994;BME280;66749;47.406;18.822;2023-09-19T00:50:26;99846.91;;;22.29;69.07
76994;BME280;66749;47.406;18.822;2023-09-19T00:51:02;99842.78;;;22.26;68.85
76994;BME280;66749;47.406;18.822;2023-09-19T00:51:35;99846.25;;;22.27;68.14
76994;BME280;66749;47.406;18.822;2023-09-19T00:52:08;99852.41;;;22.27;69.06
76994;BME280;66749;47.406;18.822;2023-09-19T00:52:43;99844.59;;;22.26;68.18
76994;BME280;66749;47.406;18.822;2023-09-19T00:53:18;99849.28;;;22.24;68.28
76994;BME280;66749;47.406;18.822;2023-09-19T00:53:52;99849.09;;;22.25;68.63
76994;BME280;66749;47.406;18.822;2023-09-19T00:54:24;99844.78;;;22.24;68.32
76994;BME280;66749;47.406;18.822;2023-09-19T00:54:57;99844.28;;;22.21;69.29
76994;BME280;66749;47.406;18.822;2023-09-19T00:55:31;99848.44;;;22.23;69.58
76994;BME280;66749;47.406;18.822;2023-09-19T00:56:05;99846.78;;;22.22;69.08
76994;BME280;66749;47.406;18.822;2023-09-19T00:56:39;99849.59;;;22.21;69.17
76994;BME280;66749;47.406;18.822;2023-09-19T00:57:11;99841.16;;;22.17;68.93
76994;BME280;66749;47.406;18.822;2023-09-19T00:57:43;99844.81;;;22.16;68.83
76994;BME280;66749;47.406;18.822;2023-09-19T00:58:17;99848.50;;;22.15;68.26
76994;BME280;66749;47.406;18.822;2023-09-19T00:58:50;99851.97;;;22.15;68.81
76994;BME280;66749;47.406;18.822;2023-09-19T00:59:22;99842.34;;;22.14;68.51
76994;BME280;66749;47.406;18.822;2023-09-19T00:59:55;99848.31;;;22.17;68.71
76994;BME280;66749;47.406;18.822;2023-09-19T01:00:28;99847.94;;;22.20;68.19
76994;BME280;66749;47.406;18.822;2023-09-19T01:01:01;99848.59;;;22.22;69.09
76994;BME280;66749;47.406;18.822;2023-09-19T01:01:35;99852.44;;;22.19;69.18
76994;BME280;66749;47.406;18.822;2023-09-19T01:02:07;99850.59;;;22.20;69.29
76994;BME280;66749;47.406;18.822;2023-09-19T01:02:41;99852.13;;;22.14;68.91
76994;BME280;66749;47.406;18.822;2023-09-19T01:03:14;99844.34;;;22.12;69.39
76994;BME280;66749;47.406;18.822;2023-09-19T01:03:46;99847.81;;;22.13;69.08
76994;BME280;66749;47.406;18.822;2023-09-19T01:04:18;99849.66;;;22.12;69.09
76994;BME280;66749;47.406;18.822;2023-09-19T01:04:50;99845.34;;;22.11;68.98
76994;BME280;66749;47.406;18.822;2023-09-19T01:05:23;99843.03;;;22.08;68.70
76994;BME280;66749;47.406;18.822;2023-09-19T01:05:55;99853.50;;;22.10;68.58
76994;BME280;66749;47.406;18.822;2023-09-19T01:06:27;99846.53;;;22.09;69.44
76994;BME280;66749;47.406;18.822;2023-09-19T01:06:59;99846.34;;;22.10;69.24
76994;BME280;66749;47.406;18.822;2023-09-19T01:07:32;99847.16;;;22.11;69.38
76994;BME280;66749;47.406;18.822;2023-09-19T01:08:07;99851.00;;;22.08;69.33
76994;BME280;66749;47.406;18.822;2023-09-19T01:08:39;99844.69;;;22.09;69.20
76994;BME280;66749;47.406;18.822;2023-09-19T01:09:12;99853.69;;;22.08;69.55
76994;BME280;66749;47.406;18.822;2023-09-19T01:09:44;99843.03;;;22.08;69.25
76994;BME280;66749;47.406;18.822;2023-09-19T01:10:18;99842.22;;;22.08;70.14
76994;BME280;66749;47.406;18.822;2023-09-19T01:11:00;99844.69;;;22.09;69.33
76994;BME280;66749;47.406;18.822;2023-09-19T01:11:43;99843.88;;;22.09;69.39
76994;BME280;66749;47.406;18.822;2023-09-19T01:12:27;99845.53;;;22.10;70.26
76994;BME280;66749;47.406;18.822;2023-09-19T01:13:22;99848.34;;;22.08;69.27
76994;BME280;66749;47.406;18.822;2023-09-19T01:15:11;99850.66;;;22.03;69.11
76994;BME280;66749;47.406;18.822;2023-09-19T01:16:28;99842.69;;;22.03;69.04
76994;BME280;66749;47.406;18.822;2023-09-19T01:17:27;99845.53;;;22.02;69.97
76994;BME280;66749;47.406;18.822;2023-09-19T01:20:53;99834.25;;;22.00;68.98
76994;BME280;66749;47.406;18.822;2023-09-19T01:21:51;99837.88;;;21.99;69.65
76994;BME280;66749;47.406;18.822;2023-09-19T01:23:34;99838.88;;;21.98;70.25
76994;BME280;66749;47.406;18.822;2023-09-19T01:27:02;99824.44;;;22.00;71.49
76994;BME280;66749;47.406;18.822;2023-09-19T01:28:30;99828.94;;;22.00;71.78
76994;BME280;66749;47.406;18.822;2023-09-19T01:30:13;99827.25;;;21.99;71.28
76994;BME280;66749;47.406;18.822;2023-09-19T01:30:47;99827.63;;;21.96;71.76
76994;BME280;66749;47.406;18.822;2023-09-19T01:31:22;99832.94;;;21.96;71.32
76994;BME280;66749;47.406;18.822;2023-09-19T01:31:59;99830.09;;;21.97;71.42
76994;BME280;66749;47.406;18.822;2023-09-19T01:32:34;99829.25;;;21.97;71.58
76994;BME280;66749;47.406;18.822;2023-09-19T01:33:10;99832.94;;;21.96;71.73
76994;BME280;66749;47.406;18.822;2023-09-19T01:34:00;99834.59;;;21.97;71.80
76994;BME280;66749;47.406;18.822;2023-09-19T01:34:52;99829.25;;;21.97;71.68
76994;BME280;66749;47.406;18.822;2023-09-19T01:35:25;99830.28;;;21.96;72.19
76994;BME280;66749;47.406;18.822;2023-09-19T01:35:57;99825.78;;;21.96;71.91
76994;BME280;66749;47.406;18.822;2023-09-19T01:36:37;99827.63;;;21.96;71.73
76994;BME280;66749;47.406;18.822;2023-09-19T01:37:10;99825.78;;;21.96;71.56
76994;BME280;66749;47.406;18.822;2023-09-19T01:37:42;99826.78;;;21.95;71.93
76994;BME280;66749;47.406;18.822;2023-09-19T01:38:16;99830.44;;;21.94;71.43
76994;BME280;66749;47.406;18.822;2023-09-19T01:38:48;99826.78;;;21.95;71.61
76994;BME280;66749;47.406;18.822;2023-09-19T01:39:20;99829.63;;;21.94;71.53
76994;BME280;66749;47.406;18.822;2023-09-19T01:39:56;99823.47;;;21.93;72.08
76994;BME280;66749;47.406;18.822;2023-09-19T01:40:28;99828.81;;;21.93;71.87
76994;BME280;66749;47.406;18.822;2023-09-19T01:41:11;99824.50;;;21.92;71.62
76994;BME280;66749;47.406;18.822;2023-09-19T01:41:56;99822.66;;;21.93;72.13
76994;BME280;66749;47.406;18.822;2023-09-19T01:42:40;99823.81;;;21.90;71.71
76994;BME280;66749;47.406;18.822;2023-09-19T01:43:27;99827.47;;;21.89;71.90
76994;BME280;66749;47.406;18.822;2023-09-19T01:44:06;99830.13;;;21.89;71.84
76994;BME280;66749;47.406;18.822;2023-09-19T01:44:54;99831.31;;;21.86;71.84
76994;BME280;66749;47.406;18.822;2023-09-19T01:45:46;99838.47;;;21.86;72.22
76994;BME280;66749;47.406;18.822;2023-09-19T01:46:25;99833.16;;;21.86;71.95
76994;BME280;66749;47.406;18.822;2023-09-19T01:47:12;99837.47;;;21.87;72.17
76994;BME280;66749;47.406;18.822;2023-09-19T01:47:51;99834.16;;;21.85;72.39
76994;BME280;66749;47.406;18.822;2023-09-19T01:48:48;99839.16;;;21.80;72.74
76994;BME280;66749;47.406;18.822;2023-09-19T01:49:32;99835.84;;;21.78;72.79
76994;BME280;66749;47.406;18.822;2023-09-19T01:50:20;99835.84;;;21.78;72.82
76994;BME280;66749;47.406;18.822;2023-09-19T01:51:05;99834.19;;;21.77;72.41
76994;BME280;66749;47.406;18.822;2023-09-19T01:52:02;99829.03;;;21.75;73.05
76994;BME280;66749;47.406;18.822;2023-09-19T01:52:46;99831.69;;;21.75;72.43
76994;BME280;66749;47.406;18.822;2023-09-19T01:53:25;99840.47;;;21.76;72.75
76994;BME280;66749;47.406;18.822;2023-09-19T01:54:11;99834.50;;;21.74;72.94
76994;BME280;66749;47.406;18.822;2023-09-19T01:54:51;99833.88;;;21.72;73.02
76994;BME280;66749;47.406;18.822;2023-09-19T01:55:26;99832.22;;;21.71;72.77
76994;BME280;66749;47.406;18.822;2023-09-19T01:56:01;99834.03;;;21.70;72.46
76994;BME280;66749;47.406;18.822;2023-09-19T01:57:42;99825.41;;;21.68;72.96
76994;BME280;66749;47.406;18.822;2023-09-19T01:58:35;99831.53;;;21.69;73.50
76994;BME280;66749;47.406;18.822;2023-09-19T01:59:16;99831.53;;;21.69;73.24
76994;BME280;66749;47.406;18.822;2023-09-19T02:00:00;99827.06;;;21.69;73.50
76994;BME280;66749;47.406;18.822;2023-09-19T02:00:41;99830.72;;;21.68;73.31
76994;BME280;66749;47.406;18.822;2023-09-19T02:01:20;99836.84;;;21.69;73.30
76994;BME280;66749;47.406;18.822;2023-09-19T02:01:54;99831.53;;;21.69;73.20
76994;BME280;66749;47.406;18.822;2023-09-19T02:02:27;99841.50;;;21.67;73.72
76994;BME280;66749;47.406;18.822;2023-09-19T02:03:02;99839.84;;;21.66;73.50
76994;BME280;66749;47.406;18.822;2023-09-19T02:03:36;99834.53;;;21.66;72.91
76994;BME280;66749;47.406;18.822;2023-09-19T02:04:09;99839.03;;;21.65;73.72
76994;BME280;66749;47.406;18.822;2023-09-19T02:04:41;99839.38;;;21.62;74.21
76994;BME280;66749;47.406;18.822;2023-09-19T02:05:22;99834.06;;;21.62;73.44
76994;BME280;66749;47.406;18.822;2023-09-19T02:05:55;99833.25;;;21.62;74.08
76994;BME280;66749;47.406;18.822;2023-09-19T02:06:27;99834.91;;;21.63;73.67
76994;BME280;66749;47.406;18.822;2023-09-19T02:06:59;99834.22;;;21.60;74.24
76994;BME280;66749;47.406;18.822;2023-09-19T02:07:32;99836.88;;;21.60;73.99
76994;BME280;66749;47.406;18.822;2023-09-19T02:08:05;99835.03;;;21.61;73.84
76994;BME280;66749;47.406;18.822;2023-09-19T02:08:37;99830.91;;;21.58;73.41
76994;BME280;66749;47.406;18.822;2023-09-19T02:09:09;99832.91;;;21.56;74.39
76994;BME280;66749;47.406;18.822;2023-09-19T02:09:40;99833.56;;;21.58;74.30
76994;BME280;66749;47.406;18.822;2023-09-19T02:10:14;99829.25;;;21.57;74.16
76994;BME280;66749;47.406;18.822;2023-09-19T02:10:47;99834.41;;;21.59;73.66
76994;BME280;66749;47.406;18.822;2023-09-19T02:11:20;99831.09;;;21.57;73.32
76994;BME280;66749;47.406;18.822;2023-09-19T02:11:52;99822.47;;;21.55;74.03
76994;BME280;66749;47.406;18.822;2023-09-19T02:12:24;99825.13;;;21.55;73.54
76994;BME280;66749;47.406;18.822;2023-09-19T02:12:56;99824.31;;;21.54;73.86
76994;BME280;66749;47.406;18.822;2023-09-19T02:13:28;99823.47;;;21.54;74.56
76994;BME280;66749;47.406;18.822;2023-09-19T02:14:02;99820.81;;;21.54;74.10
76994;BME280;66749;47.406;18.822;2023-09-19T02:14:34;99822.63;;;21.53;74.59
76994;BME280;66749;47.406;18.822;2023-09-19T02:15:08;99824.81;;;21.50;74.14
76994;BME280;66749;47.406;18.822;2023-09-19T02:15:40;99824.44;;;21.53;74.36
76994;BME280;66749;47.406;18.822;2023-09-19T02:16:12;99819.31;;;21.51;74.45
76994;BME280;66749;47.406;18.822;2023-09-19T02:16:45;99826.63;;;21.49;74.21
76994;BME280;66749;47.406;18.822;2023-09-19T02:17:17;99823.31;;;21.47;74.38
76994;BME280;66749;47.406;18.822;2023-09-19T02:17:49;99819.66;;;21.48;74.24
76994;BME280;66749;47.406;18.822;2023-09-19T02:18:21;99833.94;;;21.47;74.91
76994;BME280;66749;47.406;18.822;2023-09-19T02:18:53;99832.28;;;21.46;74.80
76994;BME280;66749;47.406;18.822;2023-09-19T02:19:25;99819.03;;;21.46;74.25
76994;BME280;66749;47.406;18.822;2023-09-19T02:19:57;99825.31;;;21.45;74.99
76994;BME280;66749;47.406;18.822;2023-09-19T02:20:30;99827.94;;;21.45;74.16
76994;BME280;66749;47.406;18.822;2023-09-19T02:21:04;99827.31;;;21.43;74.15
76994;BME280;66749;47.406;18.822;2023-09-19T02:21:38;99827.66;;;21.40;74.49
76994;BME280;66749;47.406;18.822;2023-09-19T02:22:11;99829.63;;;21.38;74.94
76994;BME280;66749;47.406;18.822;2023-09-19T02:22:44;99824.66;;;21.35;75.47
76994;BME280;66749;47.406;18.822;2023-09-19T02:23:16;99823.19;;;21.32;75.58
76994;BME280;66749;47.406;18.822;2023-09-19T02:23:48;99827.81;;;21.30;75.09
76994;BME280;66749;47.406;18.822;2023-09-19T02:24:20;99820.84;;;21.29;75.01
76994;BME280;66749;47.406;18.822;2023-09-19T02:24:52;99828.16;;;21.27;74.96
76994;BME280;66749;47.406;18.822;2023-09-19T02:25:25;99822.84;;;21.27;74.83
76994;BME280;66749;47.406;18.822;2023-09-19T02:25:59;99829.00;;;21.28;74.84
76994;BME280;66749;47.406;18.822;2023-09-19T02:26:32;99828.16;;;21.27;75.18
76994;BME280;66749;47.406;18.822;2023-09-19T02:27:05;99827.31;;;21.27;74.58
76994;BME280;66749;47.406;18.822;2023-09-19T02:27:39;99825.66;;;21.26;75.08
76994;BME280;66749;47.406;18.822;2023-09-19T02:28:11;99829.31;;;21.25;74.94
76994;BME280;66749;47.406;18.822;2023-09-19T02:28:43;99822.34;;;21.24;75.14
76994;BME280;66749;47.406;18.822;2023-09-19T02:29:15;99824.31;;;21.22;75.41
76994;BME280;66749;47.406;18.822;2023-09-19T02:29:47;99825.50;;;21.19;74.88
76994;BME280;66749;47.406;18.822;2023-09-19T02:30:21;99822.03;;;21.19;75.15
76994;BME280;66749;47.406;18.822;2023-09-19T02:30:54;99820.84;;;21.13;75.36
76994;BME280;66749;47.406;18.822;2023-09-19T02:31:26;99824.50;;;21.12;74.99
76994;BME280;66749;47.406;18.822;2023-09-19T02:32:01;99822.84;;;21.11;75.23
76994;BME280;66749;47.406;18.822;2023-09-19T02:32:33;99823.69;;;21.12;75.42
76994;BME280;66749;47.406;18.822;2023-09-19T02:33:08;99827.34;;;21.11;75.69
76994;BME280;66749;47.406;18.822;2023-09-19T02:33:40;99827.34;;;21.11;74.87
76994;BME280;66749;47.406;18.822;2023-09-19T02:34:12;99826.50;;;21.10;75.35
76994;BME280;66749;47.406;18.822;2023-09-19T02:34:48;99831.66;;;21.12;75.56
76994;BME280;66749;47.406;18.822;2023-09-19T02:35:20;99829.16;;;21.10;75.62
76994;BME280;66749;47.406;18.822;2023-09-19T02:35:58;99832.66;;;21.11;75.44
76994;BME280;66749;47.406;18.822;2023-09-19T02:36:30;99836.63;;;21.06;75.51
76994;BME280;66749;47.406;18.822;2023-09-19T02:37:03;99841.09;;;21.06;75.79
76994;BME280;66749;47.406;18.822;2023-09-19T02:37:36;99835.97;;;21.04;75.78
76994;BME280;66749;47.406;18.822;2023-09-19T02:38:08;99834.31;;;21.03;75.38
76994;BME280;66749;47.406;18.822;2023-09-19T02:38:43;99834.63;;;21.00;75.83
76994;BME280;66749;47.406;18.822;2023-09-19T02:39:15;99833.16;;;20.98;75.72
76994;BME280;66749;47.406;18.822;2023-09-19T02:39:47;99833.31;;;20.96;75.95
76994;BME280;66749;47.406;18.822;2023-09-19T02:40:19;99832.50;;;20.96;76.37
76994;BME280;66749;47.406;18.822;2023-09-19T02:40:52;99829.00;;;20.95;75.61
76994;BME280;66749;47.406;18.822;2023-09-19T02:41:24;99826.53;;;20.94;76.12
76994;BME280;66749;47.406;18.822;2023-09-19T02:41:56;99831.00;;;20.93;75.67
76994;BME280;66749;47.406;18.822;2023-09-19T02:42:28;99831.97;;;20.92;75.81
76994;BME280;66749;47.406;18.822;2023-09-19T02:42:59;99836.31;;;20.93;76.13
76994;BME280;66749;47.406;18.822;2023-09-19T02:43:31;99832.66;;;20.94;75.62
76994;BME280;66749;47.406;18.822;2023-09-19T02:44:03;99835.47;;;20.93;75.54
76994;BME280;66749;47.406;18.822;2023-09-19T02:44:38;99840.94;;;20.91;75.90
76994;BME280;66749;47.406;18.822;2023-09-19T02:45:11;99841.13;;;20.90;76.21
76994;BME280;66749;47.406;18.822;2023-09-19T02:45:43;99836.63;;;20.90;75.80
76994;BME280;66749;47.406;18.822;2023-09-19T02:46:15;99832.97;;;20.91;75.75
76994;BME280;66749;47.406;18.822;2023-09-19T02:46:48;99838.28;;;20.91;75.51
76994;BME280;66749;47.406;18.822;2023-09-19T02:47:20;99835.63;;;20.91;75.49
76994;BME280;66749;47.406;18.822;2023-09-19T02:47:52;99836.81;;;20.89;75.67
76994;BME280;66749;47.406;18.822;2023-09-19T02:48:24;99833.97;;;20.90;76.18
76994;BME280;66749;47.406;18.822;2023-09-19T02:48:57;99834.97;;;20.89;76.05
76994;BME280;66749;47.406;18.822;2023-09-19T02:49:29;99832.31;;;20.89;76.12
76994;BME280;66749;47.406;18.822;2023-09-19T02:50:01;99831.50;;;20.89;75.69
76994;BME280;66749;47.406;18.822;2023-09-19T02:50:32;99829.84;;;20.88;75.89
76994;BME280;66749;47.406;18.822;2023-09-19T02:51:05;99825.69;;;20.85;76.18
76994;BME280;66749;47.406;18.822;2023-09-19T02:51:37;99830.16;;;20.85;75.59
76994;BME280;66749;47.406;18.822;2023-09-19T02:52:09;99825.84;;;20.84;75.97
76994;BME280;66749;47.406;18.822;2023-09-19T02:52:43;99821.53;;;20.83;76.08
76994;BME280;66749;47.406;18.822;2023-09-19T02:53:16;99820.72;;;20.82;76.49
76994;BME280;66749;47.406;18.822;2023-09-19T02:53:48;99824.38;;;20.81;76.38
76994;BME280;66749;47.406;18.822;2023-09-19T02:54:21;99823.72;;;20.79;76.02
76994;BME280;66749;47.406;18.822;2023-09-19T02:54:53;99823.19;;;20.75;77.05
76994;BME280;66749;47.406;18.822;2023-09-19T02:55:26;99824.38;;;20.73;76.36
76994;BME280;66749;47.406;18.822;2023-09-19T02:55:58;99819.25;;;20.71;76.99
76994;BME280;66749;47.406;18.822;2023-09-19T02:56:30;99824.03;;;20.68;76.86
76994;BME280;66749;47.406;18.822;2023-09-19T02:57:04;99817.06;;;20.67;76.74
76994;BME280;66749;47.406;18.822;2023-09-19T02:57:38;99818.91;;;20.66;77.37
76994;BME280;66749;47.406;18.822;2023-09-19T02:58:12;99815.41;;;20.66;76.76
76994;BME280;66749;47.406;18.822;2023-09-19T02:58:46;99818.38;;;20.63;77.20
76994;BME280;66749;47.406;18.822;2023-09-19T02:59:20;99823.69;;;20.63;77.03
76994;BME280;66749;47.406;18.822;2023-09-19T02:59:51;99827.19;;;20.63;77.04
76994;BME280;66749;47.406;18.822;2023-09-19T03:00:24;99830.69;;;20.64;76.98
76994;BME280;66749;47.406;18.822;2023-09-19T03:00:55;99829.97;;;20.62;77.59
76994;BME280;66749;47.406;18.822;2023-09-19T03:01:28;99835.28;;;20.62;77.41
76994;BME280;66749;47.406;18.822;2023-09-19T03:02:00;99840.59;;;20.62;77.59
76994;BME280;66749;47.406;18.822;2023-09-19T03:02:32;99832.63;;;20.62;77.02
76994;BME280;66749;47.406;18.822;2023-09-19T03:03:06;99837.81;;;20.63;77.22
76994;BME280;66749;47.406;18.822;2023-09-19T03:03:39;99839.59;;;20.63;76.89
76994;BME280;66749;47.406;18.822;2023-09-19T03:04:12;99838.63;;;20.64;77.37
76994;BME280;66749;47.406;18.822;2023-09-19T03:04:45;99838.63;;;20.64;76.69
76994;BME280;66749;47.406;18.822;2023-09-19T03:05:19;99833.47;;;20.62;77.33
76994;BME280;66749;47.406;18.822;2023-09-19T03:05:52;99839.47;;;20.64;77.20
76994;BME280;66749;47.406;18.822;2023-09-19T03:06:26;99835.97;;;20.64;77.13
76994;BME280;66749;47.406;18.822;2023-09-19T03:06:58;99844.91;;;20.63;77.37
76994;BME280;66749;47.406;18.822;2023-09-19T03:07:32;99835.97;;;20.64;76.86
76994;BME280;66749;47.406;18.822;2023-09-19T03:08:04;99835.97;;;20.64;77.34
76994;BME280;66749;47.406;18.822;2023-09-19T03:08:36;99829.16;;;20.61;77.07
76994;BME280;66749;47.406;18.822;2023-09-19T03:09:10;99837.94;;;20.62;77.23
76994;BME280;66749;47.406;18.822;2023-09-19T03:09:43;99830.97;;;20.61;77.03
76994;BME280;66749;47.406;18.822;2023-09-19T03:10:15;99830.97;;;20.61;77.10
76994;BME280;66749;47.406;18.822;2023-09-19T03:10:48;99839.75;;;20.61;77.03
76994;BME280;66749;47.406;18.822;2023-09-19T03:11:20;99836.47;;;20.59;77.69
76994;BME280;66749;47.406;18.822;2023-09-19T03:11:54;99837.47;;;20.58;77.09
76994;BME280;66749;47.406;18.822;2023-09-19T03:12:26;99840.28;;;20.57;76.88